createdAt,value
2023-02-02T00:01:01.825Z,3.58
2023-02-02T00:03:28.580Z,3.64
2023-02-02T00:05:55.144Z,3.54
2023-02-02T00:08:22.329Z,3.67
2023-02-02T00:10:50.537Z,3.54
2023-02-02T00:13:17.522Z,3.61
2023-02-02T00:15:47.281Z,3.55
2023-02-02T00:18:13.823Z,3.71
2023-02-02T00:20:40.422Z,3.64
2023-02-02T00:23:07.103Z,3.65
2023-02-02T00:25:33.670Z,3.71
2023-02-02T00:28:00.235Z,3.65
2023-02-02T00:30:26.891Z,3.59
2023-02-02T00:32:53.549Z,3.68
2023-02-02T00:35:20.603Z,3.59
2023-02-02T00:37:47.225Z,3.63
2023-02-02T00:40:13.963Z,3.66
2023-02-02T00:42:40.792Z,3.65
2023-02-02T00:45:16.583Z,3.62
2023-02-02T00:47:45.601Z,3.55
2023-02-02T00:50:15.316Z,3.62
2023-02-02T00:52:41.876Z,3.71
2023-02-02T00:55:10.175Z,3.56
2023-02-02T00:57:36.847Z,3.53
2023-02-02T01:00:10.034Z,3.51
2023-02-02T01:02:36.750Z,3.60
2023-02-02T01:05:03.838Z,3.68
2023-02-02T01:07:30.525Z,3.65
2023-02-02T01:09:57.181Z,3.70
2023-02-02T01:12:23.738Z,3.62
2023-02-02T01:14:50.352Z,3.65
2023-02-02T01:17:17.721Z,3.64
2023-02-02T01:19:44.372Z,3.66
2023-02-02T01:22:10.925Z,3.65
2023-02-02T01:24:37.487Z,3.63
2023-02-02T01:27:04.071Z,3.65
2023-02-02T01:29:30.638Z,3.55
2023-02-02T01:31:57.188Z,3.65
2023-02-02T01:34:24.039Z,3.66
2023-02-02T01:36:50.646Z,3.68
2023-02-02T01:39:17.164Z,3.67
2023-02-02T01:41:43.751Z,3.57
2023-02-02T01:44:47.927Z,3.65
2023-02-02T01:47:14.820Z,3.61
2023-02-02T01:49:41.984Z,3.58
2023-02-02T01:52:10.536Z,3.65
2023-02-02T01:54:43.912Z,3.66
2023-02-02T01:57:16.518Z,3.67
2023-02-02T01:59:46.173Z,3.58
2023-02-02T02:02:13.108Z,3.68
2023-02-02T02:04:42.376Z,3.64
2023-02-02T02:07:09.106Z,3.62
2023-02-02T02:09:35.835Z,3.58
2023-02-02T02:12:02.393Z,3.66
2023-02-02T02:14:47.752Z,3.63
2023-02-02T02:17:38.411Z,3.65
2023-02-02T02:20:41.879Z,3.61
2023-02-02T02:23:27.026Z,3.57
2023-02-02T02:26:41.945Z,3.57
2023-02-02T02:29:39.191Z,3.56
2023-02-02T02:32:10.363Z,3.50
2023-02-02T02:35:04.109Z,3.58
2023-02-02T02:37:55.597Z,3.59
2023-02-02T02:40:45.834Z,3.55
2023-02-02T02:43:18.915Z,3.56
2023-02-02T02:45:46.379Z,3.47
2023-02-02T02:48:13.431Z,3.45
2023-02-02T02:50:39.998Z,3.58
2023-02-02T02:53:13.026Z,3.56
2023-02-02T02:55:48.873Z,3.50
2023-02-02T02:58:46.615Z,3.51
2023-02-02T03:01:37.779Z,3.48
2023-02-02T03:04:18.205Z,3.58
2023-02-02T03:06:57.491Z,3.49
2023-02-02T03:09:29.977Z,3.57
2023-02-02T03:11:57.227Z,3.50
2023-02-02T03:14:23.749Z,3.54
2023-02-02T03:16:53.769Z,3.50
2023-02-02T03:19:20.589Z,3.56
2023-02-02T03:21:47.166Z,3.61
2023-02-02T03:24:13.793Z,3.47
2023-02-02T03:26:40.890Z,3.45
2023-02-02T03:29:07.510Z,3.53
2023-02-02T03:31:34.246Z,3.49
2023-02-02T03:34:00.880Z,3.56
2023-02-02T03:36:27.930Z,3.53
2023-02-02T03:38:54.495Z,3.55
2023-02-02T03:41:21.046Z,3.57
2023-02-02T03:43:47.625Z,3.67
2023-02-02T03:46:14.197Z,3.61
2023-02-02T03:48:40.798Z,3.50
2023-02-02T03:51:09.411Z,3.54
2023-02-02T03:53:36.017Z,3.57
2023-02-02T03:56:03.792Z,3.61
2023-02-02T03:58:30.396Z,3.58
2023-02-02T04:01:08.564Z,3.62
2023-02-02T04:03:35.169Z,3.62
2023-02-02T04:06:01.885Z,3.59
2023-02-02T04:08:28.615Z,3.58
2023-02-02T04:10:55.182Z,3.66
2023-02-02T04:13:21.737Z,3.61
2023-02-02T04:15:48.379Z,3.64
2023-02-02T04:18:14.954Z,3.62
2023-02-02T04:20:41.493Z,3.62
2023-02-02T04:23:08.052Z,3.65
2023-02-02T04:25:34.590Z,3.61
2023-02-02T04:28:01.110Z,3.62
2023-02-02T04:30:27.814Z,3.65
2023-02-02T04:32:55.009Z,3.65
2023-02-02T04:35:21.559Z,3.68
2023-02-02T04:37:48.150Z,3.59
2023-02-02T04:40:14.693Z,3.56
2023-02-02T04:42:41.225Z,3.63
2023-02-02T04:45:08.215Z,3.61
2023-02-02T04:47:34.839Z,3.60
2023-02-02T04:50:01.423Z,3.67
2023-02-02T04:52:29.099Z,3.68
2023-02-02T04:54:55.684Z,3.69
2023-02-02T04:57:23.552Z,3.66
2023-02-02T04:59:50.157Z,3.58
2023-02-02T05:02:16.708Z,3.62
2023-02-02T05:04:43.323Z,3.60
2023-02-02T05:07:09.905Z,3.64
2023-02-02T05:09:36.566Z,3.68
2023-02-02T05:12:03.543Z,3.60
2023-02-02T05:14:30.057Z,3.60
2023-02-02T05:16:56.703Z,3.68
2023-02-02T05:19:23.302Z,3.60
2023-02-02T05:21:51.292Z,3.64
2023-02-02T05:24:18.262Z,3.68
2023-02-02T05:26:45.042Z,3.66
2023-02-02T05:29:11.695Z,3.60
2023-02-02T05:31:38.298Z,3.64
2023-02-02T05:34:06.887Z,3.68
2023-02-02T05:36:33.527Z,3.68
2023-02-02T05:39:00.517Z,3.66
2023-02-02T05:41:27.140Z,3.60
2023-02-02T05:43:53.781Z,3.64
2023-02-02T05:46:20.365Z,3.61
2023-02-02T05:48:46.973Z,3.55
2023-02-02T05:51:20.365Z,3.61
2023-02-02T05:53:47.077Z,3.51
2023-02-02T05:56:15.746Z,3.62
2023-02-02T05:58:43.196Z,3.65
2023-02-02T06:01:10.152Z,3.65
2023-02-02T06:03:37.007Z,3.57
2023-02-02T06:06:06.615Z,3.55
2023-02-02T06:08:33.584Z,3.56
2023-02-02T06:11:00.150Z,3.56
2023-02-02T06:13:26.675Z,3.57
2023-02-02T06:15:53.440Z,3.49
2023-02-02T06:18:20.555Z,3.53
2023-02-02T06:20:47.686Z,3.51
2023-02-02T06:23:14.324Z,3.53
2023-02-02T06:25:40.861Z,3.55
2023-02-02T06:28:08.658Z,3.58
2023-02-02T06:30:35.291Z,3.55
2023-02-02T06:33:02.124Z,3.55
2023-02-02T06:35:28.683Z,3.58
2023-02-02T06:37:55.203Z,3.53
2023-02-02T06:40:21.741Z,3.60
2023-02-02T06:42:48.359Z,3.55
2023-02-02T06:45:15.012Z,3.53
2023-02-02T06:47:41.735Z,3.51
2023-02-02T06:50:09.403Z,3.60
2023-02-02T06:52:35.940Z,3.49
2023-02-02T06:55:02.487Z,3.50
2023-02-02T06:57:29.118Z,3.45
2023-02-02T06:59:55.721Z,3.36
2023-02-02T07:02:23.426Z,3.53
2023-02-02T07:04:50.142Z,3.45
2023-02-02T07:07:16.697Z,3.44
2023-02-02T07:09:43.431Z,3.50
2023-02-02T07:12:10.035Z,3.44
2023-02-02T07:14:36.865Z,3.56
2023-02-02T07:17:03.453Z,3.57
2023-02-02T07:19:30.044Z,3.51
2023-02-02T07:21:56.607Z,3.55
2023-02-02T07:24:23.208Z,3.50
2023-02-02T07:26:49.781Z,3.58
2023-02-02T07:29:16.409Z,3.45
2023-02-02T07:31:43.063Z,3.63
2023-02-02T07:34:09.729Z,3.57
2023-02-02T07:36:36.922Z,3.59
2023-02-02T07:39:04.992Z,3.59
2023-02-02T07:41:32.291Z,3.69
2023-02-02T07:43:58.872Z,3.63
2023-02-02T07:46:25.531Z,3.63
2023-02-02T07:48:55.714Z,3.59
2023-02-02T07:51:23.326Z,3.61
2023-02-02T07:53:54.975Z,3.68
2023-02-02T07:56:24.524Z,3.67
2023-02-02T07:58:56.152Z,3.54
2023-02-02T08:01:23.568Z,3.59
2023-02-02T08:03:50.982Z,3.68
2023-02-02T08:06:28.761Z,3.63
2023-02-02T08:08:55.904Z,3.59
2023-02-02T08:11:23.917Z,3.63
2023-02-02T08:13:53.763Z,3.56
2023-02-02T08:16:21.355Z,3.56
2023-02-02T08:18:48.857Z,3.64
2023-02-02T08:21:16.502Z,3.58
2023-02-02T08:23:43.542Z,3.50
2023-02-02T08:26:11.784Z,3.60
2023-02-02T08:28:40.229Z,3.55
2023-02-02T08:31:14.295Z,3.55
2023-02-02T08:33:41.409Z,3.60
2023-02-02T08:36:20.102Z,3.53
2023-02-02T08:38:47.050Z,3.51
2023-02-02T08:41:16.467Z,3.54
2023-02-02T08:43:43.570Z,3.62
2023-02-02T08:46:14.334Z,3.62
2023-02-02T08:48:41.341Z,3.72
2023-02-02T08:51:10.476Z,3.57
2023-02-02T08:53:37.150Z,3.67
2023-02-02T08:56:06.699Z,3.63
2023-02-02T08:58:33.871Z,3.72
2023-02-02T09:01:08.989Z,3.50
2023-02-02T09:03:35.811Z,3.55
2023-02-02T09:06:07.622Z,3.56
2023-02-02T09:08:34.742Z,3.54
2023-02-02T09:11:16.530Z,3.69
2023-02-02T09:13:48.732Z,3.63
2023-02-02T09:16:17.891Z,3.62
2023-02-02T09:18:45.530Z,3.56
2023-02-02T09:21:14.796Z,3.61
2023-02-02T09:23:43.116Z,3.66
2023-02-02T09:26:24.461Z,3.66
2023-02-02T09:28:57.490Z,3.75
2023-02-02T09:31:25.496Z,3.77
2023-02-02T09:33:52.454Z,3.89
2023-02-02T09:36:21.751Z,3.90
2023-02-02T09:38:49.837Z,4.02
2023-02-02T09:41:31.435Z,4.06
2023-02-02T09:44:13.217Z,4.05
2023-02-02T09:46:39.705Z,4.12
2023-02-02T09:49:11.338Z,4.06
2023-02-02T09:51:47.126Z,4.00
2023-02-02T09:54:22.037Z,3.99
2023-02-02T09:56:55.739Z,4.02
2023-02-02T09:59:27.625Z,4.31
2023-02-02T10:01:57.759Z,4.39
2023-02-02T10:04:46.383Z,4.55
2023-02-02T10:07:18.757Z,4.35
2023-02-02T10:09:57.349Z,4.43
2023-02-02T10:12:47.778Z,4.51
2023-02-02T10:15:26.803Z,4.44
2023-02-02T10:18:23.239Z,4.45
2023-02-02T10:21:11.547Z,4.58
2023-02-02T10:23:44.523Z,4.50
2023-02-02T10:26:19.486Z,4.38
2023-02-02T10:29:47.798Z,4.31
2023-02-02T10:32:23.780Z,4.34
2023-02-02T10:35:11.078Z,4.30
2023-02-02T10:37:51.419Z,4.31
2023-02-02T10:40:45.427Z,4.36
2023-02-02T10:43:47.143Z,4.40
2023-02-02T10:46:28.616Z,4.34
2023-02-02T10:49:33.504Z,4.49
2023-02-02T10:52:06.600Z,4.71
2023-02-02T10:55:18.363Z,4.70
2023-02-02T10:58:08.669Z,4.73
2023-02-02T11:00:51.442Z,4.74
2023-02-02T11:03:20.879Z,4.76
2023-02-02T11:06:06.128Z,4.69
2023-02-02T11:08:34.478Z,4.61
2023-02-02T11:11:21.669Z,4.63
2023-02-02T11:14:03.527Z,4.45
2023-02-02T11:16:42.653Z,4.53
2023-02-02T11:19:19.723Z,4.65
2023-02-02T11:21:53.343Z,4.54
2023-02-02T11:24:30.645Z,4.64
2023-02-02T11:27:02.057Z,4.59
2023-02-02T11:29:32.993Z,4.67
2023-02-02T11:32:33.019Z,4.76
2023-02-02T11:35:08.547Z,4.65
2023-02-02T11:37:36.650Z,4.70
2023-02-02T11:40:24.473Z,4.85
2023-02-02T11:42:52.101Z,4.82
2023-02-02T11:45:33.753Z,4.85
2023-02-02T11:48:06.614Z,4.87
2023-02-02T11:50:33.430Z,4.84
2023-02-02T11:53:00.100Z,4.86
2023-02-02T11:55:31.949Z,4.86
2023-02-02T11:58:17.341Z,4.89
2023-02-02T12:00:49.448Z,4.83
2023-02-02T12:03:53.210Z,4.89
2023-02-02T12:06:25.468Z,4.80
2023-02-02T12:09:01.524Z,4.95
2023-02-02T12:11:37.033Z,4.93
2023-02-02T12:14:12.099Z,5.10
2023-02-02T12:16:44.384Z,5.18
2023-02-02T12:19:20.124Z,4.97
2023-02-02T12:21:58.530Z,4.91
2023-02-02T12:24:32.533Z,4.84
2023-02-02T12:27:10.941Z,4.77
2023-02-02T12:30:21.796Z,4.84
2023-02-02T12:33:20.471Z,4.93
2023-02-02T12:36:04.990Z,4.88
2023-02-02T12:38:41.895Z,4.94
2023-02-02T12:42:00.904Z,4.94
2023-02-02T12:44:54.901Z,5.02
2023-02-02T12:47:30.941Z,4.92
2023-02-02T12:50:36.173Z,5.08
2023-02-02T12:53:17.651Z,5.14
2023-02-02T12:56:03.959Z,5.03
2023-02-02T12:58:39.453Z,4.92
2023-02-02T13:01:06.053Z,4.99
2023-02-02T13:03:49.078Z,5.06
2023-02-02T13:06:52.785Z,5.10
2023-02-02T13:10:00.869Z,4.97
2023-02-02T13:12:29.653Z,5.02
2023-02-02T13:15:01.233Z,5.13
2023-02-02T13:17:36.929Z,4.93
2023-02-02T13:20:18.482Z,4.95
2023-02-02T13:22:49.607Z,5.04
2023-02-02T13:25:25.012Z,5.02
2023-02-02T13:27:53.668Z,5.00
2023-02-02T13:30:30.651Z,4.85
2023-02-02T13:33:05.384Z,4.76
2023-02-02T13:35:44.876Z,4.73
2023-02-02T13:38:24.621Z,4.91
2023-02-02T13:40:55.489Z,4.77
2023-02-02T13:43:43.717Z,4.66
2023-02-02T13:46:38.263Z,4.71
2023-02-02T13:49:23.338Z,4.61
2023-02-02T13:52:16.872Z,4.72
2023-02-02T13:55:20.839Z,4.71
2023-02-02T13:58:13.117Z,4.71
2023-02-02T14:01:06.376Z,4.72
2023-02-02T14:03:41.091Z,4.82
2023-02-02T14:06:20.054Z,4.69
2023-02-02T14:08:55.758Z,4.58
2023-02-02T14:11:29.132Z,4.58
2023-02-02T14:14:18.822Z,4.56
2023-02-02T14:16:51.367Z,4.68
2023-02-02T14:19:36.023Z,4.56
2023-02-02T14:22:39.043Z,4.44
2023-02-02T14:25:36.986Z,4.55
2023-02-02T14:28:33.560Z,4.58
2023-02-02T14:31:29.335Z,4.55
2023-02-02T14:34:41.181Z,4.46
2023-02-02T14:37:28.717Z,4.51
2023-02-02T14:39:58.115Z,4.57
2023-02-02T14:43:24.717Z,4.64
2023-02-02T14:46:11.530Z,4.48
2023-02-02T14:48:39.961Z,4.61
2023-02-02T14:51:34.924Z,4.60
2023-02-02T14:54:08.457Z,4.47
2023-02-02T14:57:15.036Z,4.49
2023-02-02T14:59:47.643Z,4.39
2023-02-02T15:02:19.810Z,4.41
2023-02-02T15:04:49.768Z,4.46
2023-02-02T15:07:25.259Z,4.40
2023-02-02T15:09:56.274Z,4.36
2023-02-02T15:12:30.096Z,4.43
2023-02-02T15:15:24.925Z,4.30
2023-02-02T15:18:15.625Z,4.32
2023-02-02T15:20:48.923Z,4.26
2023-02-02T15:23:34.109Z,4.35
2023-02-02T15:26:06.676Z,4.27
2023-02-02T15:28:45.939Z,4.27
2023-02-02T15:31:22.911Z,4.37
2023-02-02T15:33:58.662Z,4.43
2023-02-02T15:36:31.796Z,4.37
2023-02-02T15:39:03.154Z,4.39
2023-02-02T15:55:25.916Z,4.28
2023-02-02T15:57:54.390Z,4.28
2023-02-02T16:00:33.280Z,4.38
2023-02-02T16:02:59.905Z,4.45
2023-02-02T16:05:29.581Z,4.39
2023-02-02T16:08:05.753Z,4.31
2023-02-02T16:10:34.339Z,4.20
2023-02-02T16:13:02.720Z,4.31
2023-02-02T16:15:31.985Z,4.33
2023-02-02T16:18:06.004Z,4.25
2023-02-02T16:20:35.705Z,4.41
2023-02-02T16:23:06.239Z,4.25
2023-02-02T16:25:36.825Z,4.31
2023-02-02T16:28:04.278Z,4.28
2023-02-02T16:30:35.832Z,4.27
2023-02-02T16:33:29.038Z,4.25
2023-02-02T16:35:57.363Z,4.22
2023-02-02T16:38:33.155Z,4.08
2023-02-02T16:41:07.352Z,4.14
2023-02-02T16:43:35.657Z,4.09
2023-02-02T16:46:12.858Z,4.05
2023-02-02T16:48:47.026Z,4.04
2023-02-02T16:51:16.801Z,4.10
2023-02-02T16:54:02.731Z,4.10
2023-02-02T16:56:59.557Z,4.10
2023-02-02T16:59:37.898Z,4.04
2023-02-02T17:02:21.159Z,3.96
2023-02-02T17:04:52.404Z,4.00
2023-02-02T17:07:20.963Z,3.98
2023-02-02T17:09:48.344Z,4.06
2023-02-02T17:12:34.892Z,4.01
2023-02-02T17:15:25.148Z,3.93
2023-02-02T17:17:52.216Z,3.88
2023-02-02T17:20:19.948Z,3.83
2023-02-02T17:22:50.519Z,3.89
2023-02-02T17:25:21.515Z,3.95
2023-02-02T17:27:48.496Z,3.95
2023-02-02T17:30:17.741Z,3.96
2023-02-02T17:32:44.445Z,3.98
2023-02-02T17:35:16.014Z,4.06
2023-02-02T17:37:43.087Z,4.01
2023-02-02T17:40:14.484Z,4.02
2023-02-02T17:42:44.208Z,4.04
2023-02-02T17:45:34.423Z,4.00
2023-02-02T17:48:01.826Z,4.09
2023-02-02T17:50:32.217Z,4.01
2023-02-02T17:52:59.598Z,4.05
2023-02-02T17:55:40.337Z,4.13
2023-02-02T17:58:07.002Z,4.05
2023-02-02T18:00:34.247Z,4.05
2023-02-02T18:03:20.034Z,4.15
2023-02-02T18:05:47.081Z,4.11
2023-02-02T18:08:14.351Z,4.10
2023-02-02T18:10:41.733Z,4.13
2023-02-02T18:13:11.118Z,4.12
2023-02-02T18:15:38.887Z,4.14
2023-02-02T18:18:05.547Z,4.20
2023-02-02T18:20:43.795Z,4.27
2023-02-02T18:23:12.445Z,4.24
2023-02-02T18:25:39.657Z,4.24
2023-02-02T18:28:07.386Z,4.28
2023-02-02T18:30:37.482Z,4.23
2023-02-02T18:35:47.136Z,4.31
2023-02-02T18:38:15.776Z,4.31
2023-02-02T18:40:42.772Z,4.31
2023-02-02T18:43:09.516Z,4.32
2023-02-02T18:45:37.355Z,4.30
2023-02-02T18:48:04.195Z,4.33
2023-02-02T18:50:30.760Z,4.32
2023-02-02T18:52:57.396Z,4.39
2023-02-02T18:55:24.817Z,4.44
2023-02-02T18:57:51.757Z,4.37
2023-02-02T19:00:19.451Z,4.38
2023-02-02T19:02:46.112Z,4.38
2023-02-02T19:05:31.355Z,4.50
2023-02-02T19:07:59.124Z,4.51
2023-02-02T19:10:28.291Z,4.44
2023-02-02T19:12:56.022Z,4.52
2023-02-02T19:15:23.674Z,4.59
2023-02-02T19:17:52.818Z,4.55
2023-02-02T19:20:23.807Z,4.56
2023-02-02T19:22:55.087Z,4.60
2023-02-02T19:25:21.663Z,4.64
2023-02-02T19:27:48.210Z,4.65
2023-02-02T19:30:23.242Z,4.61
2023-02-02T19:32:50.358Z,4.69
2023-02-02T19:35:26.561Z,4.71
2023-02-02T19:38:01.760Z,4.71
2023-02-02T19:40:28.836Z,4.71
2023-02-02T19:43:14.688Z,4.74
2023-02-02T19:45:41.366Z,4.73
2023-02-02T19:48:16.012Z,4.73
2023-02-02T19:50:43.031Z,4.71
2023-02-02T19:53:20.449Z,4.92
2023-02-02T19:55:47.707Z,4.87
2023-02-02T19:58:17.854Z,4.81
2023-02-02T20:00:47.374Z,4.75
2023-02-02T20:03:21.202Z,4.85
2023-02-02T20:05:50.825Z,4.75
2023-02-02T20:08:34.924Z,4.67
2023-02-02T20:11:28.607Z,4.67
2023-02-02T20:13:55.423Z,4.70
2023-02-02T20:16:23.912Z,4.65
2023-02-02T20:18:57.891Z,4.70
2023-02-02T20:21:30.549Z,4.69
2023-02-02T20:23:58.288Z,4.72
2023-02-02T20:26:26.172Z,4.67
2023-02-02T20:28:55.262Z,4.72
2023-02-02T20:31:25.260Z,4.75
2023-02-02T20:33:54.657Z,4.66
2023-02-02T20:36:47.893Z,4.65
2023-02-02T20:39:37.346Z,4.63
2023-02-02T20:42:04.909Z,4.62
2023-02-02T20:44:33.490Z,4.61
2023-02-02T20:47:01.552Z,4.61
2023-02-02T20:49:31.866Z,4.63
2023-02-02T20:52:03.850Z,4.66
2023-02-02T20:54:31.812Z,4.58
2023-02-02T20:57:00.901Z,4.57
2023-02-02T20:59:27.562Z,4.61
2023-02-02T21:01:54.428Z,4.62
2023-02-02T21:04:22.126Z,4.63
2023-02-02T21:06:50.299Z,4.69
2023-02-02T21:09:18.061Z,4.69
2023-02-02T21:11:44.796Z,4.71
2023-02-02T21:14:11.462Z,4.64
2023-02-02T21:16:38.827Z,4.67
2023-02-02T21:19:05.512Z,4.66
2023-02-02T21:21:32.121Z,4.65
2023-02-02T21:23:59.294Z,4.66
2023-02-02T21:26:32.210Z,4.61
2023-02-02T21:29:00.119Z,4.64
2023-02-02T21:31:27.105Z,4.64
2023-02-02T21:33:54.028Z,4.67
2023-02-02T21:36:29.039Z,4.63
2023-02-02T21:39:34.313Z,4.68
2023-02-02T21:42:13.771Z,4.70
2023-02-02T21:44:42.317Z,4.76
2023-02-02T21:47:25.663Z,4.70
2023-02-02T21:49:53.177Z,4.62
2023-02-02T21:52:23.178Z,4.66
2023-02-02T21:54:50.217Z,4.60
2023-02-02T21:57:21.555Z,4.65
2023-02-02T21:59:57.714Z,4.56
2023-02-02T22:02:44.882Z,4.58
2023-02-02T22:05:38.303Z,4.66
2023-02-02T22:08:24.354Z,4.57
2023-02-02T22:10:51.549Z,4.61
2023-02-02T22:13:21.056Z,4.61
2023-02-02T22:15:51.164Z,4.55
2023-02-02T22:18:24.285Z,4.56
2023-02-02T22:20:52.731Z,4.65
2023-02-02T22:23:22.065Z,4.65
2023-02-02T22:25:51.040Z,4.56
2023-02-02T22:28:20.806Z,4.62
2023-02-02T22:30:48.649Z,4.60
2023-02-02T22:33:15.593Z,4.61
2023-02-02T22:35:43.124Z,4.70
2023-02-02T22:38:10.767Z,4.69
2023-02-02T22:40:38.403Z,4.60
2023-02-02T22:43:07.864Z,4.65
2023-02-02T22:45:37.564Z,4.62
2023-02-02T22:48:10.977Z,4.66
2023-02-02T22:50:37.894Z,4.62
2023-02-02T22:53:05.111Z,4.59
2023-02-02T22:55:34.055Z,4.63
2023-02-02T22:58:01.183Z,4.64
2023-02-02T23:00:30.321Z,4.56
2023-02-02T23:02:57.975Z,4.63
2023-02-02T23:05:26.415Z,4.64
2023-02-02T23:07:54.207Z,4.61
2023-02-02T23:10:23.951Z,4.60
2023-02-02T23:12:55.010Z,4.54
2023-02-02T23:15:22.186Z,4.51
2023-02-02T23:17:49.019Z,4.66
2023-02-02T23:20:17.679Z,4.62
2023-02-02T23:22:44.732Z,4.66
2023-02-02T23:25:13.334Z,4.61
2023-02-02T23:27:40.058Z,4.66
2023-02-02T23:30:08.640Z,4.68
2023-02-02T23:32:35.692Z,4.62
2023-02-02T23:35:02.804Z,4.70
2023-02-02T23:37:29.598Z,4.59
2023-02-02T23:39:59.158Z,4.65
2023-02-02T23:42:26.046Z,4.67
2023-02-02T23:44:53.227Z,4.72
2023-02-02T23:47:20.326Z,4.67
2023-02-02T23:49:47.337Z,4.63
2023-02-02T23:52:14.535Z,4.61
2023-02-02T23:54:41.565Z,4.63
2023-02-02T23:57:08.415Z,4.59
2023-02-02T23:59:35.157Z,4.63
